createdAt,value
2017-10-16T05:31:03.861Z,11.14
2017-10-16T05:36:03.231Z,11.35
2017-10-16T05:41:03.683Z,11.28
2017-10-16T05:46:03.474Z,11.27
2017-10-16T05:51:03.216Z,11.41
2017-10-16T05:56:03.054Z,11.38
2017-10-16T06:01:03.776Z,11.52
2017-10-16T06:06:03.485Z,11.46
2017-10-16T06:11:03.668Z,11.48
2017-10-16T06:16:03.467Z,11.55
2017-10-16T06:21:03.345Z,11.61
2017-10-16T06:26:03.119Z,11.71
2017-10-16T06:31:03.905Z,11.66
2017-10-16T06:36:03.686Z,11.96
2017-10-16T06:41:03.802Z,12.14
2017-10-16T06:46:03.668Z,12.08
2017-10-16T06:51:03.447Z,11.98
2017-10-16T06:56:03.252Z,11.99
2017-10-16T07:01:02.999Z,12.21
2017-10-16T07:06:03.767Z,12.14
2017-10-16T07:11:03.970Z,12.54
2017-10-16T07:16:03.772Z,12.62
2017-10-16T07:21:03.625Z,12.69
2017-10-16T07:26:03.393Z,12.80
2017-10-16T07:31:03.170Z,13.15
2017-10-16T07:36:03.067Z,13.35
2017-10-16T07:41:03.194Z,13.70
2017-10-16T07:46:04.000Z,13.91
2017-10-16T07:51:03.856Z,13.99
2017-10-16T07:56:03.655Z,14.11
2017-10-16T08:01:03.407Z,14.26
2017-10-16T08:06:03.178Z,14.55
2017-10-16T08:11:03.389Z,14.65
2017-10-16T08:16:03.125Z,14.78
2017-10-16T08:21:03.943Z,14.88
2017-10-16T08:26:03.718Z,15.06
2017-10-16T08:31:03.550Z,15.18
2017-10-16T08:36:03.269Z,15.42
2017-10-16T08:41:03.544Z,15.58
2017-10-16T08:46:03.332Z,15.61
2017-10-16T08:51:03.134Z,15.85
2017-10-16T08:56:03.906Z,16.09
2017-10-16T09:01:03.655Z,16.27
2017-10-16T09:06:03.484Z,16.36
2017-10-16T09:11:03.705Z,16.51
2017-10-16T09:16:03.464Z,16.51
2017-10-16T09:21:03.340Z,16.51
2017-10-16T09:26:03.130Z,16.51
2017-10-16T09:31:03.908Z,17.34
2017-10-16T09:36:03.714Z,17.62
2017-10-16T09:41:03.931Z,17.75
2017-10-16T09:46:03.738Z,17.87
2017-10-16T09:51:03.504Z,18.01
2017-10-16T09:56:03.436Z,18.09
2017-10-16T10:01:03.251Z,18.27
2017-10-16T10:06:03.066Z,18.48
2017-10-16T10:11:03.338Z,18.83
2017-10-16T10:16:03.030Z,18.96
2017-10-16T10:21:03.889Z,19.02
2017-10-16T10:26:03.731Z,18.61
2017-10-16T10:31:03.532Z,18.78
2017-10-16T10:36:03.283Z,19.10
2017-10-16T10:41:03.572Z,18.98
2017-10-16T10:46:03.371Z,19.07
2017-10-16T10:51:03.218Z,19.28
2017-10-16T10:56:03.033Z,19.31
2017-10-16T11:01:03.820Z,19.34
2017-10-16T11:06:03.685Z,19.53
2017-10-16T11:11:03.860Z,19.28
2017-10-16T11:16:03.667Z,19.29
2017-10-16T11:21:03.477Z,19.03
2017-10-16T11:26:03.283Z,19.00
2017-10-16T11:31:03.088Z,19.32
2017-10-16T11:36:03.910Z,19.14
2017-10-16T11:41:03.129Z,19.15
2017-10-16T11:46:03.946Z,18.83
2017-10-16T11:51:03.654Z,19.31
2017-10-16T11:56:03.445Z,19.36
2017-10-16T12:01:03.229Z,19.02
2017-10-16T12:06:03.045Z,19.31
2017-10-16T12:11:03.215Z,19.52
2017-10-16T12:16:03.996Z,18.84
2017-10-16T12:21:03.871Z,19.44
2017-10-16T12:26:03.627Z,19.19
2017-10-16T12:31:03.429Z,19.45
2017-10-16T12:36:03.283Z,19.33
2017-10-16T12:41:03.459Z,19.48
2017-10-16T12:46:03.257Z,19.44
2017-10-16T12:51:04.024Z,19.68
2017-10-16T12:56:03.801Z,19.93
2017-10-16T13:01:03.580Z,19.91
2017-10-16T13:06:03.313Z,19.37
2017-10-16T13:11:03.531Z,19.18
2017-10-16T13:16:03.313Z,19.32
2017-10-16T13:21:03.216Z,19.49
2017-10-16T13:26:03.940Z,19.59
2017-10-16T13:31:03.745Z,19.80
2017-10-16T13:36:03.522Z,19.85
2017-10-16T13:41:03.712Z,19.96
2017-10-16T13:46:03.492Z,19.99
2017-10-16T13:51:03.105Z,19.91
2017-10-16T13:56:03.875Z,19.94
2017-10-16T14:01:03.583Z,19.86
2017-10-16T14:06:03.388Z,19.58
2017-10-16T14:11:03.629Z,19.46
2017-10-16T14:16:03.348Z,19.25
2017-10-16T14:21:03.224Z,19.51
2017-10-16T14:26:03.991Z,19.80
2017-10-16T14:31:03.779Z,19.75
2017-10-16T14:36:03.511Z,19.46
2017-10-16T14:41:03.749Z,19.51
2017-10-16T14:46:03.525Z,19.73
2017-10-16T14:51:05.248Z,19.44
2017-10-16T14:56:03.007Z,19.46
2017-10-16T15:01:03.972Z,19.32
2017-10-16T15:06:03.962Z,18.98
2017-10-16T15:11:03.147Z,19.02
2017-10-16T15:16:03.922Z,19.18
2017-10-16T15:21:03.781Z,19.09
2017-10-16T15:26:03.614Z,19.16
2017-10-16T15:31:03.411Z,19.13
2017-10-16T15:36:03.201Z,19.05
2017-10-16T15:41:03.376Z,18.98
2017-10-16T15:46:03.262Z,18.97
2017-10-16T15:51:03.077Z,18.94
2017-10-16T15:56:03.800Z,18.68
2017-10-16T16:01:03.601Z,18.98
2017-10-16T16:06:03.421Z,18.77
2017-10-16T16:11:03.601Z,18.53
2017-10-16T16:16:03.313Z,18.69
2017-10-16T16:21:03.543Z,18.59
2017-10-16T16:26:04.213Z,18.20
2017-10-16T16:31:03.744Z,18.46
2017-10-16T16:36:03.508Z,18.29
2017-10-16T16:41:03.680Z,18.27
2017-10-16T16:46:12.209Z,17.96
2017-10-16T16:51:03.826Z,17.93
2017-10-16T16:56:03.602Z,18.08
2017-10-16T17:01:03.459Z,17.95
2017-10-16T17:06:03.235Z,17.81
2017-10-16T17:11:03.465Z,17.51
2017-10-16T17:16:03.311Z,17.72
2017-10-16T17:21:03.355Z,17.41
2017-10-16T17:26:03.488Z,17.47
2017-10-16T17:31:03.637Z,17.34
2017-10-16T17:36:03.476Z,17.30
2017-10-16T17:41:03.676Z,17.35
2017-10-16T17:46:03.885Z,17.16
2017-10-16T17:51:03.572Z,17.23
2017-10-16T17:56:03.851Z,17.17
2017-10-16T18:01:03.249Z,16.93
2017-10-16T18:06:03.220Z,16.72
2017-10-16T18:11:03.704Z,16.79
2017-10-16T18:16:03.888Z,16.69
2017-10-16T18:21:05.000Z,16.64
2017-10-16T18:26:03.811Z,16.57
2017-10-16T18:31:04.634Z,16.72
2017-10-16T18:36:03.115Z,16.67
2017-10-16T18:41:03.353Z,16.64
2017-10-16T18:46:03.199Z,16.64
2017-10-16T18:51:04.066Z,16.81
2017-10-16T18:56:04.129Z,16.84
2017-10-16T19:01:04.270Z,16.77
2017-10-16T19:06:04.399Z,16.71
2017-10-16T19:11:03.480Z,16.77
2017-10-16T19:16:04.284Z,16.65
2017-10-16T19:21:03.780Z,16.64
2017-10-16T19:26:03.623Z,16.67
2017-10-16T19:31:03.768Z,16.57
2017-10-16T19:36:03.769Z,16.58
2017-10-16T19:41:04.885Z,16.54
2017-10-16T19:46:04.219Z,16.41
2017-10-16T19:51:03.916Z,16.36
2017-10-16T19:56:04.279Z,16.42
2017-10-16T20:01:04.302Z,16.09
2017-10-16T20:06:03.560Z,16.18
2017-10-16T20:11:03.901Z,15.97
2017-10-16T20:16:03.703Z,16.04
2017-10-16T20:21:03.691Z,16.10
2017-10-16T20:26:03.438Z,15.98
2017-10-16T20:31:03.991Z,15.98
2017-10-16T20:36:03.167Z,15.98
2017-10-16T20:41:04.075Z,15.92
2017-10-16T20:46:03.618Z,15.80
2017-10-16T20:51:04.084Z,15.89
2017-10-16T20:56:04.142Z,15.87
2017-10-16T21:01:03.900Z,15.77
2017-10-16T21:06:03.784Z,15.79
2017-10-16T21:11:04.023Z,15.77
2017-10-16T21:16:03.171Z,15.59
2017-10-16T21:21:03.129Z,15.38
2017-10-16T21:26:04.251Z,15.39
2017-10-16T21:31:06.375Z,15.43
2017-10-16T21:36:03.781Z,15.43
2017-10-16T21:41:04.967Z,15.30
2017-10-16T21:46:03.625Z,15.30
2017-10-16T21:51:03.422Z,15.22
2017-10-16T21:56:03.535Z,15.13
2017-10-16T22:01:03.379Z,15.09
2017-10-16T22:06:03.496Z,15.09
2017-10-16T22:11:03.790Z,15.09
2017-10-16T22:16:03.530Z,15.01
2017-10-16T22:21:03.430Z,14.89
2017-10-16T22:26:03.180Z,14.94
2017-10-16T22:31:03.967Z,14.87
2017-10-16T22:36:03.764Z,14.91
2017-10-16T22:41:04.003Z,14.79
2017-10-16T22:46:03.800Z,14.66
2017-10-16T22:51:03.771Z,14.57
2017-10-16T22:56:03.517Z,14.62
2017-10-16T23:01:03.286Z,14.59
2017-10-16T23:06:03.107Z,14.50
2017-10-16T23:11:03.359Z,14.25
2017-10-16T23:16:03.077Z,14.54
2017-10-16T23:21:03.902Z,14.20
2017-10-16T23:26:03.761Z,14.24
2017-10-16T23:31:03.501Z,14.13
2017-10-16T23:36:03.257Z,14.17
2017-10-16T23:41:03.421Z,14.09
2017-10-16T23:46:03.198Z,14.24
2017-10-16T23:51:03.930Z,13.87
2017-10-16T23:56:03.718Z,14.08
